createdAt,value
2019-02-10T10:25:58.860Z,9.17
2019-02-10T10:28:32.301Z,9.40
2019-02-10T10:31:05.878Z,8.90
2019-02-10T10:33:39.349Z,8.90
2019-02-10T10:36:12.789Z,9.33
2019-02-10T10:38:46.235Z,8.63
2019-02-10T10:41:24.088Z,9.40
2019-02-10T10:43:57.534Z,9.17
2019-02-10T10:46:30.965Z,9.27
2019-02-10T10:49:04.429Z,9.07
2019-02-10T10:51:39.297Z,8.70
2019-02-10T10:54:12.951Z,9.13
2019-02-10T10:56:46.522Z,9.77
2019-02-10T10:59:19.999Z,9.10
2019-02-10T11:01:53.615Z,9.17
2019-02-10T11:04:28.001Z,8.73
2019-02-10T11:07:03.079Z,8.10
2019-02-10T11:09:37.152Z,8.87
2019-02-10T11:12:10.638Z,8.73
2019-02-10T11:14:44.248Z,7.87
2019-02-10T11:17:17.929Z,7.77
2019-02-10T11:19:51.426Z,8.57
2019-02-10T11:22:25.366Z,8.27
2019-02-10T11:24:59.004Z,8.23
2019-02-10T11:27:32.556Z,7.70
2019-02-10T11:30:15.682Z,7.90
2019-02-10T11:32:49.092Z,8.03
2019-02-10T11:35:22.576Z,7.67
2019-02-10T11:37:56.279Z,7.80
2019-02-10T11:40:29.780Z,7.93
2019-02-10T11:43:03.271Z,8.27
2019-02-10T11:45:36.777Z,8.13
2019-02-10T11:48:10.302Z,7.90
2019-02-10T11:50:46.393Z,8.13
2019-02-10T11:53:19.937Z,8.03
2019-02-10T11:55:53.436Z,8.13
2019-02-10T11:58:26.953Z,8.43
2019-02-10T12:01:03.404Z,7.80
2019-02-10T12:03:37.035Z,8.00
2019-02-10T12:06:10.634Z,7.87
2019-02-10T12:08:44.209Z,8.67
2019-02-10T12:11:18.251Z,8.03
2019-02-10T12:13:52.578Z,8.27
2019-02-10T12:16:26.130Z,8.03
2019-02-10T12:19:01.251Z,7.80
2019-02-10T12:21:34.665Z,8.77
2019-02-10T12:24:08.147Z,8.20
2019-02-10T12:26:41.627Z,8.33
2019-02-10T12:29:15.057Z,7.97
2019-02-10T12:31:48.499Z,8.67
2019-02-10T12:34:21.923Z,10.03
2019-02-10T12:36:55.425Z,10.23
2019-02-10T12:39:28.856Z,10.93
2019-02-10T12:42:02.316Z,10.73
2019-02-10T12:44:35.750Z,12.17
2019-02-10T12:47:09.251Z,10.67
2019-02-10T12:49:44.140Z,10.33
2019-02-10T12:52:17.727Z,11.20
2019-02-10T12:54:51.156Z,10.83
2019-02-10T12:57:24.626Z,10.80
2019-02-10T12:59:58.111Z,10.73
2019-02-10T13:02:31.543Z,10.73
2019-02-10T13:05:06.347Z,11.47
2019-02-10T13:07:39.782Z,12.70
2019-02-10T13:10:17.490Z,12.33
2019-02-10T13:12:49.577Z,11.17
2019-02-10T13:15:23.039Z,12.10
2019-02-10T13:17:58.103Z,12.80
2019-02-10T13:20:31.568Z,12.03
2019-02-10T13:23:05.020Z,12.50
2019-02-10T13:25:38.492Z,11.57
2019-02-10T13:28:11.949Z,12.90
2019-02-10T13:30:45.411Z,13.43
2019-02-10T13:33:18.836Z,13.63
2019-02-10T13:35:52.325Z,14.77
2019-02-10T13:38:25.744Z,15.27
2019-02-10T13:40:59.235Z,14.93
2019-02-10T13:43:33.753Z,14.43
2019-02-10T13:46:07.331Z,16.33
2019-02-10T13:48:40.796Z,15.77
2019-02-10T13:51:15.547Z,13.87
2019-02-10T13:53:49.111Z,15.90
2019-02-10T13:56:22.615Z,14.77
2019-02-10T13:58:56.079Z,15.43
2019-02-10T14:01:29.573Z,16.20
2019-02-10T14:04:03.035Z,17.13
2019-02-10T14:06:36.482Z,16.47
2019-02-10T14:09:09.918Z,17.40
2019-02-10T14:11:43.377Z,18.17
2019-02-10T14:14:16.821Z,18.43
2019-02-10T14:16:50.267Z,18.67
2019-02-10T14:19:23.754Z,18.27
2019-02-10T14:21:57.156Z,17.07
2019-02-10T14:24:30.632Z,17.70
2019-02-10T14:27:04.167Z,19.17
2019-02-10T14:29:37.635Z,20.07
2019-02-10T14:32:11.238Z,20.03
2019-02-10T14:34:44.696Z,20.27
2019-02-10T14:37:18.136Z,21.67
2019-02-10T14:39:51.593Z,20.30
2019-02-10T14:42:25.025Z,21.73
2019-02-10T14:44:58.475Z,20.00
2019-02-10T14:47:31.973Z,21.33
2019-02-10T14:50:08.752Z,21.60
2019-02-10T14:52:43.082Z,20.90
2019-02-10T14:55:20.076Z,20.50
2019-02-10T14:57:53.550Z,22.13
2019-02-10T15:00:27.260Z,21.43
2019-02-10T15:03:00.822Z,22.63
